Japan Airlines Virtual Airport Information Service

Seoul Incheon International Airport

ICAO: RKSI Country: South Korea
Latitude: 37.4691 Longitude: 126.451
Latest Arrival : SCC6943 (RJFM-RKSI) Latest Departure : KAL941 (RKSI-UTTT)


WX CaptureLIVE
Data provided by noaa.gov | Fetched at 08:25:09

METAR : RKSI 010800Z 22010KT CAVOK 21/12 Q1012 NOSIG

TAF : RKSI 010500Z 0106/0212 20010KT 9999 SCT030 TN17/0116Z TX22/0204Z BECMG 0122/0123 20015G25KT BKN030 BKN120 BECMG 0204/0205 23017G30KT 6000 -RA SCT010 BKN025 OVC100 BECMG 0208/0209 26015G25KT NSW BECMG 0211/0212 30008KT 9999 SCT030 BKN180


Runway Data for RKSI
Data provided by openaviationdata.com

Runway ID Mag Var Hdg Length Elevation Surface ILS Freq ILS Id ILS Slope
15L -8 152° 12308 ft 23 ft Asphalt 111.9 ISLL 3
15R -8 152° 12308 ft 23 ft Asphalt 109.1 ISRR 3
33L -8 332° 12308 ft 23 ft Asphalt 109.3 INLL 3
33R -8 332° 12308 ft 23 ft Asphalt 108.9 INRR 3

Seoul Incheon International Airport, South Korea
Use only for reference purposes



Not for navigational purposes.